Time;durP1;ratioP1;P1;durP2;ratioP2;P2;SDS_P1;SDS_P2;PMS_P1;PMS_P2;Temp;Humidity;BMP_temperature;BMP_pressure;BME280_temperature;BME280_humidity;BME280_pressure;Samples;Min_cycle;Max_cycle;Signal;HPM_P1;HPM_P2
2023/10/31 00:02:22;;;;;;;7.10;5.78;;;;;;;11.61;100.00;99028.78;4958482;28;20059;-78
2023/10/31 00:04:49;;;;;;;7.75;6.03;;;;;;;11.58;100.00;99043.09;4958421;28;20047;-79
2023/10/31 00:07:15;;;;;;;7.00;5.57;;;;;;;11.59;100.00;99055.19;4959453;28;20089;-78
2023/10/31 00:09:43;;;;;;;6.32;5.43;;;;;;;11.55;100.00;99043.50;4960096;28;20085;-79
2023/10/31 00:12:10;;;;;;;6.03;5.32;;;;;;;11.60;100.00;99056.00;4959529;28;20138;-79
2023/10/31 00:14:36;;;;;;;6.57;5.60;;;;;;;11.53;100.00;99070.88;4960067;28;20106;-79
2023/10/31 00:17:03;;;;;;;6.80;6.05;;;;;;;11.51;100.00;99072.91;4959686;28;20097;-78
2023/10/31 00:19:30;;;;;;;6.13;5.43;;;;;;;11.57;100.00;99080.78;4959564;28;20151;-79
2023/10/31 00:21:56;;;;;;;7.20;6.32;;;;;;;11.56;100.00;99075.72;4959582;28;20134;-78
2023/10/31 00:24:23;;;;;;;9.07;6.30;;;;;;;11.51;100.00;99094.66;4958870;28;20059;-77
2023/10/31 00:26:51;;;;;;;7.03;6.07;;;;;;;11.50;100.00;99087.81;4958590;29;20087;-77
2023/10/31 00:29:18;;;;;;;7.07;6.28;;;;;;;11.54;100.00;99086.41;4960500;28;20106;-79
2023/10/31 00:31:45;;;;;;;8.00;6.28;;;;;;;11.47;100.00;99096.06;4961450;29;20054;-79
2023/10/31 00:34:11;;;;;;;8.13;5.55;;;;;;;11.42;100.00;99095.84;4960574;28;20071;-79
2023/10/31 00:36:38;;;;;;;6.40;5.70;;;;;;;11.48;100.00;99104.72;4961221;28;20474;-79
2023/10/31 00:39:05;;;;;;;7.05;6.10;;;;;;;11.46;100.00;99094.44;4960549;28;20051;-78
2023/10/31 00:41:31;;;;;;;6.55;5.80;;;;;;;11.41;100.00;99099.47;4960891;28;20175;-78
2023/10/31 00:43:59;;;;;;;6.60;5.28;;;;;;;11.41;100.00;99107.34;4963662;28;20138;-79
2023/10/31 00:46:26;;;;;;;7.05;5.32;;;;;;;11.41;100.00;99111.75;4959591;28;20411;-79
2023/10/31 00:48:53;;;;;;;5.93;4.90;;;;;;;11.31;100.00;99099.06;4960126;29;20139;-79
2023/10/31 00:51:19;;;;;;;6.35;4.93;;;;;;;11.36;100.00;99096.63;4959811;29;20139;-79
2023/10/31 00:53:46;;;;;;;5.22;4.38;;;;;;;11.35;100.00;99105.50;4959833;28;20094;-79
2023/10/31 00:56:13;;;;;;;6.32;5.40;;;;;;;11.36;100.00;99112.34;4961025;28;20086;-79
2023/10/31 00:58:42;;;;;;;6.75;4.97;;;;;;;11.25;100.00;99119.00;4962719;28;20134;-81
2023/10/31 01:01:13;;;;;;;9.10;4.88;;;;;;;11.29;100.00;99106.31;4962189;28;20087;-80
2023/10/31 01:03:40;;;;;;;7.03;4.50;;;;;;;11.23;100.00;99117.56;4962719;28;20082;-80
2023/10/31 01:06:07;;;;;;;8.13;4.20;;;;;;;11.20;100.00;99112.72;4962641;28;20087;-80
2023/10/31 01:08:35;;;;;;;6.85;4.63;;;;;;;11.23;100.00;99125.44;4963136;28;20067;-79
2023/10/31 01:11:01;;;;;;;7.13;4.35;;;;;;;11.18;100.00;99120.78;4963867;28;20290;-80
2023/10/31 01:13:28;;;;;;;6.80;4.60;;;;;;;11.10;100.00;99126.19;4963604;28;20086;-80
2023/10/31 01:15:55;;;;;;;6.78;4.18;;;;;;;11.06;100.00;99121.53;4963090;28;20082;-80
2023/10/31 01:18:25;;;;;;;6.95;4.60;;;;;;;11.04;100.00;99123.53;4961563;28;20285;-80
2023/10/31 01:20:52;;;;;;;5.75;4.00;;;;;;;11.03;100.00;99127.97;4961347;28;20255;-80
2023/10/31 01:23:20;;;;;;;6.57;4.10;;;;;;;11.00;100.00;99130.16;4961348;29;20597;-80
2023/10/31 01:25:47;;;;;;;8.63;4.45;;;;;;;10.92;100.00;99121.47;4961758;28;20085;-79
2023/10/31 01:28:14;;;;;;;8.30;4.30;;;;;;;10.97;100.00;99137.41;4961080;28;20083;-79
2023/10/31 01:30:40;;;;;;;7.60;4.35;;;;;;;10.95;100.00;99135.97;4959349;29;20143;-79
2023/10/31 01:33:07;;;;;;;9.45;4.60;;;;;;;10.96;100.00;99137.59;4959320;28;20101;-80
2023/10/31 01:35:35;;;;;;;8.32;4.32;;;;;;;10.94;100.00;99132.56;4959808;28;20110;-79
2023/10/31 01:38:01;;;;;;;8.93;4.85;;;;;;;10.96;100.00;99138.41;4958692;28;20259;-79
2023/10/31 01:40:29;;;;;;;7.68;4.78;;;;;;;11.07;100.00;99141.47;4958630;28;20055;-80
2023/10/31 01:42:56;;;;;;;6.13;4.53;;;;;;;11.09;100.00;99142.91;4959533;28;20058;-79
2023/10/31 01:45:22;;;;;;;7.05;4.10;;;;;;;11.05;100.00;99153.94;4959792;28;20490;-79
2023/10/31 01:47:49;;;;;;;7.00;4.07;;;;;;;11.07;100.00;99149.34;4959299;28;20115;-80
2023/10/31 01:50:17;;;;;;;5.38;3.80;;;;;;;10.97;100.00;99137.41;4958606;28;20154;-79
2023/10/31 01:52:46;;;;;;;4.20;3.22;;;;;;;11.01;100.00;99143.06;4959368;28;20055;-79
2023/10/31 01:55:13;;;;;;;6.80;3.58;;;;;;;10.95;100.00;99138.59;4958281;28;20075;-79
2023/10/31 01:57:40;;;;;;;5.22;3.58;;;;;;;10.94;100.00;99145.63;4959018;28;20284;-79
2023/10/31 02:00:08;;;;;;;6.97;3.80;;;;;;;10.95;100.00;99149.06;4958060;28;20090;-79
2023/10/31 02:02:37;;;;;;;6.53;3.38;;;;;;;11.01;100.00;99152.72;4958704;28;20157;-79
2023/10/31 02:05:03;;;;;;;5.65;3.75;;;;;;;11.02;100.00;99143.88;4958344;28;20086;-78
2023/10/31 02:07:30;;;;;;;6.53;4.20;;;;;;;11.00;100.00;99140.63;4958483;28;20093;-79
2023/10/31 02:09:58;;;;;;;8.73;4.03;;;;;;;10.91;100.00;99147.84;4959751;28;20477;-79
2023/10/31 02:12:35;;;;;;;6.57;3.70;;;;;;;10.96;100.00;99142.84;4958755;28;20089;-81
2023/10/31 02:15:02;;;;;;;8.40;4.22;;;;;;;10.90;100.00;99143.59;4959684;29;20079;-80
2023/10/31 02:17:28;;;;;;;10.20;4.30;;;;;;;10.70;100.00;99140.91;4959332;28;20157;-79
2023/10/31 02:19:55;;;;;;;5.72;3.83;;;;;;;10.74;100.00;99151.78;4958656;29;20134;-79
2023/10/31 02:22:23;;;;;;;7.78;3.88;;;;;;;10.73;100.00;99143.13;4958637;28;20086;-78
2023/10/31 02:24:50;;;;;;;6.85;4.13;;;;;;;10.60;100.00;99143.06;4958992;28;20050;-79
2023/10/31 02:27:16;;;;;;;8.85;4.60;;;;;;;10.60;100.00;99140.44;4958566;28;20039;-79
2023/10/31 02:29:43;;;;;;;7.70;4.50;;;;;;;10.52;100.00;99140.59;4958489;29;20119;-79
2023/10/31 02:32:10;;;;;;;7.38;4.53;;;;;;;10.50;100.00;99140.78;4960901;28;20110;-79
2023/10/31 02:34:36;;;;;;;8.85;4.82;;;;;;;10.45;100.00;99139.72;4959920;28;20126;-79
2023/10/31 02:37:03;;;;;;;11.02;5.07;;;;;;;10.44;100.00;99136.31;4959803;28;20107;-79
2023/10/31 02:39:31;;;;;;;7.43;4.20;;;;;;;10.42;100.00;99147.97;4958356;28;20083;-78
2023/10/31 02:41:58;;;;;;;8.65;4.60;;;;;;;10.40;100.00;99142.91;4958190;29;20059;-78
2023/10/31 02:44:25;;;;;;;11.43;5.03;;;;;;;10.37;100.00;99137.28;4958152;28;20055;-79
2023/10/31 02:46:51;;;;;;;9.43;4.47;;;;;;;10.34;100.00;99141.09;4957593;28;20130;-79
2023/10/31 02:49:18;;;;;;;9.63;4.55;;;;;;;10.28;100.00;99132.19;4958328;28;20055;-80
2023/10/31 02:51:44;;;;;;;7.72;4.70;;;;;;;10.20;100.00;99134.16;4957140;28;20438;-78
2023/10/31 02:54:11;;;;;;;9.98;4.72;;;;;;;10.26;100.00;99139.44;4957617;28;20047;-79
2023/10/31 02:56:39;;;;;;;8.18;4.97;;;;;;;10.22;100.00;99150.44;4958651;28;20573;-79
2023/10/31 02:59:06;;;;;;;9.30;4.80;;;;;;;10.13;100.00;99157.59;4962480;28;20083;-79
2023/10/31 03:01:33;;;;;;;10.50;5.10;;;;;;;10.12;100.00;99163.81;4963209;28;20065;-80
2023/10/31 03:03:59;;;;;;;11.90;4.65;;;;;;;10.10;100.00;99171.03;4963980;28;20075;-78
2023/10/31 03:06:26;;;;;;;9.80;5.13;;;;;;;10.13;100.00;99173.25;4962836;28;20138;-78
2023/10/31 03:08:53;;;;;;;7.68;4.55;;;;;;;10.14;100.00;99169.66;4963742;28;20059;-78
2023/10/31 03:11:23;;;;;;;8.27;4.35;;;;;;;10.17;100.00;99179.72;4961573;28;20051;-78
2023/10/31 03:13:52;;;;;;;8.55;4.70;;;;;;;10.13;100.00;99177.69;4963768;28;20082;-78
2023/10/31 03:16:19;;;;;;;6.78;4.75;;;;;;;10.08;100.00;99183.47;4962532;28;20463;-81
2023/10/31 03:18:46;;;;;;;9.82;4.63;;;;;;;10.14;100.00;99189.75;4966023;29;20063;-81
2023/10/31 03:21:13;;;;;;;9.25;4.70;;;;;;;10.22;100.00;99193.09;4960065;28;20051;-81
2023/10/31 03:23:40;;;;;;;10.02;5.03;;;;;;;10.24;100.00;99188.47;4958963;28;20085;-81
2023/10/31 03:26:09;;;;;;;6.20;4.03;;;;;;;10.28;100.00;99184.47;4960239;28;20051;-81
2023/10/31 03:28:35;;;;;;;7.70;5.32;;;;;;;10.30;100.00;99184.31;4969425;28;20115;-81
2023/10/31 03:31:04;;;;;;;5.72;3.97;;;;;;;10.41;100.00;99185.56;4970817;29;20502;-81
2023/10/31 03:33:30;;;;;;;7.75;4.10;;;;;;;10.40;100.00;99184.75;4964189;29;20051;-80
2023/10/31 03:35:57;;;;;;;8.38;4.20;;;;;;;10.50;100.00;99187.03;4963272;28;20126;-81
2023/10/31 03:38:23;;;;;;;6.13;3.50;;;;;;;10.51;100.00;99196.50;4962825;28;20063;-81
2023/10/31 03:40:50;;;;;;;6.10;4.10;;;;;;;10.55;100.00;99187.28;4961139;28;20129;-80
2023/10/31 03:43:16;;;;;;;6.68;3.92;;;;;;;10.58;100.00;99186.91;4962632;28;20459;-80
2023/10/31 03:45:43;;;;;;;9.27;4.00;;;;;;;10.57;100.00;99193.94;4964205;28;20097;-80
2023/10/31 03:48:11;;;;;;;6.63;3.65;;;;;;;10.56;100.00;99199.38;4962040;28;20130;-79
2023/10/31 03:50:38;;;;;;;4.57;3.47;;;;;;;10.62;100.00;99206.44;4961439;28;20158;-80
2023/10/31 03:53:04;;;;;;;9.10;3.65;;;;;;;10.67;100.00;99206.69;4960858;28;20083;-79
2023/10/31 03:55:31;;;;;;;4.40;3.20;;;;;;;10.66;100.00;99199.03;4960800;28;20110;-79
2023/10/31 03:57:58;;;;;;;5.07;3.33;;;;;;;10.71;100.00;99202.69;4961889;28;20134;-80
2023/10/31 04:00:25;;;;;;;5.97;3.22;;;;;;;10.75;100.00;99211.78;4961623;29;20051;-78
2023/10/31 04:02:51;;;;;;;4.53;3.47;;;;;;;10.79;100.00;99212.22;4959466;28;20296;-78
2023/10/31 04:05:19;;;;;;;8.23;3.50;;;;;;;10.82;100.00;99211.81;4959217;28;20138;-78
2023/10/31 04:07:47;;;;;;;4.63;3.47;;;;;;;10.88;100.00;99217.06;4957055;28;20055;-77
2023/10/31 04:10:14;;;;;;;6.38;3.80;;;;;;;10.88;100.00;99218.88;4957329;28;20137;-78
2023/10/31 04:12:40;;;;;;;7.53;3.50;;;;;;;10.90;100.00;99216.88;4957609;28;20051;-78
2023/10/31 04:15:08;;;;;;;6.75;3.65;;;;;;;10.93;100.00;99212.06;4958672;28;20160;-78
2023/10/31 04:17:35;;;;;;;5.57;3.53;;;;;;;10.99;100.00;99220.97;4961168;28;20573;-79
2023/10/31 04:20:02;;;;;;;6.47;3.67;;;;;;;10.97;100.00;99212.50;4960959;28;20059;-78
2023/10/31 04:22:31;;;;;;;6.57;4.00;;;;;;;11.03;100.00;99216.16;4962001;28;20062;-79
2023/10/31 04:24:57;;;;;;;7.53;3.70;;;;;;;10.97;100.00;99220.34;4959804;28;20142;-78
2023/10/31 04:27:24;;;;;;;6.70;3.80;;;;;;;11.00;100.00;99217.34;4963643;29;20078;-78
2023/10/31 04:29:51;;;;;;;7.60;3.70;;;;;;;10.95;100.00;99217.94;4963547;28;20499;-78
2023/10/31 04:32:17;;;;;;;7.80;3.80;;;;;;;10.95;100.00;99227.59;4963230;29;20058;-79
2023/10/31 04:34:44;;;;;;;4.65;3.58;;;;;;;10.92;100.00;99230.59;4960715;28;20486;-78
2023/10/31 04:37:10;;;;;;;6.10;3.78;;;;;;;10.94;100.00;99229.41;4959700;28;20075;-79
2023/10/31 04:39:38;;;;;;;7.05;3.88;;;;;;;10.89;100.00;99226.53;4958196;28;20079;-79
2023/10/31 04:42:05;;;;;;;4.72;3.55;;;;;;;10.97;100.00;99234.25;4959597;28;20051;-79
2023/10/31 04:44:32;;;;;;;5.00;3.70;;;;;;;11.00;100.00;99242.72;4959776;28;20054;-79
2023/10/31 04:46:58;;;;;;;4.38;3.50;;;;;;;10.99;100.00;99241.91;4959272;28;20138;-79
2023/10/31 04:49:25;;;;;;;6.00;4.28;;;;;;;11.00;100.00;99242.72;4958400;29;20543;-79
2023/10/31 04:51:52;;;;;;;4.65;4.00;;;;;;;10.96;100.00;99253.56;4951508;29;20083;-78
2023/10/31 04:54:18;;;;;;;5.30;4.18;;;;;;;11.03;100.00;99250.19;4958994;28;20051;-79
2023/10/31 04:56:48;;;;;;;5.38;3.70;;;;;;;11.06;100.00;99252.41;4960442;28;20142;-78
2023/10/31 04:59:15;;;;;;;5.05;4.00;;;;;;;11.04;100.00;99255.22;4960625;28;20118;-78
2023/10/31 05:01:42;;;;;;;8.68;4.25;;;;;;;11.08;100.00;99256.47;4961606;28;20079;-79
2023/10/31 05:04:08;;;;;;;6.45;3.95;;;;;;;11.08;100.00;99260.88;4958867;28;20059;-78
2023/10/31 05:06:35;;;;;;;5.78;4.13;;;;;;;11.00;100.00;99255.81;4957870;29;20102;-79
2023/10/31 05:09:02;;;;;;;5.18;4.32;;;;;;;11.01;100.00;99266.06;4961475;28;20054;-79
2023/10/31 05:11:30;;;;;;;6.18;4.53;;;;;;;11.00;100.00;99256.59;4959006;28;20244;-79
2023/10/31 05:13:58;;;;;;;6.22;4.13;;;;;;;11.03;100.00;99256.22;4958701;28;20532;-78
2023/10/31 05:16:25;;;;;;;6.63;4.60;;;;;;;11.04;100.00;99265.69;4960734;28;20051;-79
2023/10/31 05:18:51;;;;;;;5.57;4.50;;;;;;;10.93;100.00;99267.03;4952964;29;20048;-79
2023/10/31 05:21:21;;;;;;;6.65;5.35;;;;;;;10.92;100.00;99267.22;4957342;28;20079;-78
2023/10/31 05:23:48;;;;;;;7.57;4.53;;;;;;;10.95;100.00;99270.25;4958158;28;20047;-79
2023/10/31 05:26:14;;;;;;;6.05;4.28;;;;;;;10.92;100.00;99270.66;4957571;28;20572;-79
2023/10/31 05:28:41;;;;;;;5.65;4.38;;;;;;;10.93;100.00;99274.88;4957914;28;20047;-79
2023/10/31 05:31:09;;;;;;;5.97;4.43;;;;;;;10.93;100.00;99269.66;4957644;29;20106;-80
2023/10/31 05:33:36;;;;;;;6.88;4.20;;;;;;;10.95;100.00;99272.88;4958192;28;20047;-79
2023/10/31 05:36:03;;;;;;;6.18;4.35;;;;;;;10.90;100.00;99275.25;4957860;28;20063;-79
2023/10/31 05:38:29;;;;;;;5.30;4.05;;;;;;;10.93;100.00;99274.06;4958056;28;20098;-79
2023/10/31 05:40:56;;;;;;;5.97;4.20;;;;;;;10.93;100.00;99277.50;4958252;28;20138;-79
2023/10/31 05:43:23;;;;;;;6.55;4.00;;;;;;;10.94;100.00;99280.94;4958992;28;20139;-80
2023/10/31 05:45:49;;;;;;;5.38;4.25;;;;;;;10.94;100.00;99276.50;4958635;28;20093;-79
2023/10/31 05:48:18;;;;;;;5.30;4.20;;;;;;;10.93;100.00;99287.16;4958830;28;20102;-80
2023/10/31 05:50:45;;;;;;;5.53;4.45;;;;;;;10.87;100.00;99298.41;4958079;28;20051;-80
2023/10/31 05:53:12;;;;;;;5.55;4.10;;;;;;;10.93;100.00;99285.34;4958691;28;20056;-79
2023/10/31 05:55:39;;;;;;;6.38;4.00;;;;;;;10.91;100.00;99297.00;4958415;29;20055;-78
2023/10/31 05:58:06;;;;;;;5.85;4.97;;;;;;;10.90;100.00;99303.25;4957980;28;20054;-79
2023/10/31 06:00:33;;;;;;;7.45;4.80;;;;;;;10.90;100.00;99311.09;4957523;28;20161;-79
2023/10/31 06:02:59;;;;;;;5.78;4.47;;;;;;;10.91;100.00;99316.13;4958019;28;20089;-80
2023/10/31 06:05:27;;;;;;;7.78;5.00;;;;;;;10.90;100.00;99311.91;4958344;28;20058;-79
2023/10/31 06:07:54;;;;;;;5.55;4.50;;;;;;;10.97;100.00;99322.41;4951964;29;20043;-80
2023/10/31 06:10:21;;;;;;;6.22;4.70;;;;;;;10.88;100.00;99319.13;4958023;28;20471;-79
2023/10/31 06:12:48;;;;;;;7.63;5.00;;;;;;;10.85;100.00;99327.38;4958083;28;20086;-78
2023/10/31 06:15:14;;;;;;;5.18;4.40;;;;;;;10.86;100.00;99334.25;4958384;29;20427;-79
2023/10/31 06:17:41;;;;;;;6.32;4.72;;;;;;;10.83;100.00;99341.66;4958552;28;20086;-79
2023/10/31 06:20:08;;;;;;;6.50;4.90;;;;;;;10.82;100.00;99340.84;4958335;28;20069;-79
2023/10/31 06:22:36;;;;;;;6.65;5.10;;;;;;;10.79;100.00;99351.69;4958393;28;20118;-79
2023/10/31 06:25:03;;;;;;;9.05;5.10;;;;;;;10.80;100.00;99355.94;4956856;28;20153;-79
2023/10/31 06:27:30;;;;;;;8.15;5.47;;;;;;;10.81;100.00;99360.16;4956071;28;20127;-79
2023/10/31 06:29:56;;;;;;;7.38;4.97;;;;;;;10.76;100.00;99362.53;4956585;28;20129;-79
2023/10/31 06:32:23;;;;;;;6.38;5.20;;;;;;;10.78;100.00;99368.38;4958862;28;20093;-80
2023/10/31 06:34:49;;;;;;;6.72;5.40;;;;;;;10.74;100.00;99367.16;4958725;28;20085;-79
2023/10/31 06:37:55;;;;;;;9.90;5.60;;;;;;;10.76;100.00;99362.53;4971284;28;20043;-78
2023/10/31 06:40:34;;;;;;;6.63;5.43;;;;;;;10.70;100.00;99357.25;4973432;28;20061;-78
2023/10/31 06:43:05;;;;;;;6.85;5.90;;;;;;;10.63;100.00;99371.06;4967630;29;20054;-77
2023/10/31 06:45:39;;;;;;;8.32;6.30;;;;;;;10.63;100.00;99385.94;4971795;28;20047;-78
2023/10/31 06:48:11;;;;;;;8.00;6.50;;;;;;;10.55;100.00;99381.63;4971281;29;20083;-78
2023/10/31 06:50:38;;;;;;;10.05;7.45;;;;;;;10.63;100.00;99394.59;4965531;28;20047;-79
2023/10/31 06:53:06;;;;;;;8.85;6.32;;;;;;;10.70;100.00;99399.09;4958522;28;20078;-79
2023/10/31 06:55:32;;;;;;;9.05;6.60;;;;;;;10.74;100.00;99405.56;4956673;28;20098;-79
2023/10/31 06:57:59;;;;;;;9.35;6.40;;;;;;;10.79;100.00;99408.44;4956037;28;20048;-79
2023/10/31 07:00:26;;;;;;;8.52;6.05;;;;;;;10.71;100.00;99411.19;4959628;28;20059;-80
2023/10/31 07:02:52;;;;;;;8.80;5.90;;;;;;;10.69;100.00;99413.97;4958062;28;20046;-79
2023/10/31 07:05:20;;;;;;;9.25;5.55;;;;;;;10.73;100.00;99420.47;4961066;28;20053;-79
2023/10/31 07:07:46;;;;;;;7.57;5.65;;;;;;;10.73;100.00;99424.88;4961764;28;20418;-79
2023/10/31 07:10:14;;;;;;;10.18;5.75;;;;;;;10.72;100.00;99424.06;4964010;28;20083;-79
2023/10/31 07:12:41;;;;;;;7.38;6.30;;;;;;;10.68;100.00;99428.06;4961796;28;20469;-79
2023/10/31 07:15:09;;;;;;;7.25;5.63;;;;;;;10.68;100.00;99425.44;4960282;28;20051;-79
2023/10/31 07:17:36;;;;;;;6.53;5.18;;;;;;;10.75;100.00;99434.19;4960688;29;20113;-79
2023/10/31 07:20:02;;;;;;;8.63;5.88;;;;;;;10.79;100.00;99432.00;4961544;29;20082;-79
2023/10/31 07:22:29;;;;;;;6.88;5.75;;;;;;;10.71;100.00;99432.94;4957256;28;20059;-78
2023/10/31 07:24:56;;;;;;;8.30;6.18;;;;;;;10.63;100.00;99433.03;4957366;28;20048;-78
2023/10/31 07:27:24;;;;;;;8.27;6.57;;;;;;;10.56;100.00;99440.00;4957662;28;20051;-79
2023/10/31 07:29:51;;;;;;;8.40;6.55;;;;;;;10.54;100.00;99442.78;4951753;28;20079;-78
2023/10/31 07:32:17;;;;;;;10.27;7.25;;;;;;;10.58;100.00;99433.59;4957863;29;20134;-78
2023/10/31 07:34:44;;;;;;;8.52;6.78;;;;;;;10.58;100.00;99438.00;4958346;28;20134;-78
2023/10/31 07:37:11;;;;;;;9.93;7.35;;;;;;;10.69;100.00;99441.94;4960986;28;20074;-81
2023/10/31 07:39:40;;;;;;;9.77;7.13;;;;;;;10.94;100.00;99430.91;4959473;29;20082;-80
2023/10/31 07:42:09;;;;;;;9.40;7.45;;;;;;;11.10;100.00;99426.44;4961266;28;20055;-80
2023/10/31 07:44:41;;;;;;;10.40;7.22;;;;;;;11.49;100.00;99433.78;4959879;29;20065;-80
2023/10/31 07:47:13;;;;;;;10.15;6.50;;;;;;;11.81;100.00;99437.66;4960392;28;20059;-81
2023/10/31 07:49:40;;;;;;;9.73;7.05;;;;;;;12.06;100.00;99428.31;4959131;28;20305;-80
2023/10/31 07:52:07;;;;;;;8.57;6.75;;;;;;;12.10;100.00;99429.53;4961009;28;20086;-79
2023/10/31 07:54:33;;;;;;;8.75;6.80;;;;;;;12.14;100.00;99419.47;4961332;29;20078;-79
2023/10/31 07:57:00;;;;;;;8.55;6.10;;;;;;;12.43;100.00;99426.22;4961916;28;20138;-79
2023/10/31 07:59:27;;;;;;;8.38;6.38;;;;;;;12.52;100.00;99422.41;4962603;28;20111;-79
2023/10/31 08:01:55;;;;;;;6.55;5.60;;;;;;;12.85;100.00;99428.53;4955347;29;20058;-79
2023/10/31 08:04:21;;;;;;;9.13;5.95;;;;;;;13.46;98.52;99436.28;4961514;28;20085;-79
2023/10/31 08:06:48;;;;;;;7.57;5.78;;;;;;;13.34;96.50;99413.44;4961047;28;20146;-79
2023/10/31 08:09:16;;;;;;;8.30;5.35;;;;;;;13.30;95.68;99410.41;4961495;28;20134;-79
2023/10/31 08:11:42;;;;;;;8.70;5.82;;;;;;;13.06;96.30;99416.25;4960946;28;20063;-80
2023/10/31 08:14:11;;;;;;;7.10;5.28;;;;;;;12.63;96.68;99424.47;4960584;28;20055;-79
2023/10/31 08:16:37;;;;;;;8.73;5.45;;;;;;;12.55;97.65;99437.78;4961396;28;20150;-79
2023/10/31 08:19:05;;;;;;;7.95;5.93;;;;;;;12.41;98.26;99433.47;4961104;28;20102;-79
2023/10/31 08:21:34;;;;;;;6.85;5.68;;;;;;;12.22;98.51;99448.16;4960222;28;20141;-79
2023/10/31 08:24:01;;;;;;;5.70;5.03;;;;;;;12.19;99.62;99451.16;4960381;28;20510;-79
2023/10/31 08:26:28;;;;;;;7.90;5.57;;;;;;;12.02;100.00;99444.63;4960243;28;20138;-79
2023/10/31 08:28:55;;;;;;;7.60;5.20;;;;;;;11.89;100.00;99448.78;4960187;28;20067;-79
2023/10/31 08:31:21;;;;;;;6.95;5.32;;;;;;;11.78;100.00;99461.63;4959729;28;20429;-79
2023/10/31 08:33:48;;;;;;;13.23;5.70;;;;;;;11.70;100.00;99456.50;4960509;29;20087;-78
2023/10/31 08:36:16;;;;;;;7.70;5.20;;;;;;;11.75;100.00;99454.13;4958946;28;20078;-78
2023/10/31 08:38:45;;;;;;;8.10;5.82;;;;;;;11.73;100.00;99466.59;4958567;29;20584;-78
2023/10/31 08:41:19;;;;;;;7.20;5.22;;;;;;;11.91;100.00;99472.19;4958683;28;20300;-79
2023/10/31 08:43:46;;;;;;;8.13;5.40;;;;;;;11.89;100.00;99469.75;4959966;28;20063;-78
2023/10/31 08:46:13;;;;;;;10.75;6.10;;;;;;;12.00;100.00;99465.78;4958754;28;20062;-79
2023/10/31 08:48:39;;;;;;;8.73;5.75;;;;;;;11.86;100.00;99470.13;4959598;28;20048;-78
2023/10/31 08:51:06;;;;;;;7.32;5.80;;;;;;;11.89;100.00;99476.81;4956964;28;20142;-79
2023/10/31 08:53:34;;;;;;;9.15;5.43;;;;;;;11.95;100.00;99468.16;4957735;28;20054;-79
2023/10/31 08:56:01;;;;;;;7.40;5.32;;;;;;;11.97;100.00;99476.66;4957262;28;20083;-79
2023/10/31 08:58:29;;;;;;;6.28;5.07;;;;;;;11.98;100.00;99483.50;4957984;28;20047;-78
2023/10/31 09:00:56;;;;;;;6.70;5.30;;;;;;;11.96;100.00;99486.34;4958702;28;20058;-78
2023/10/31 09:03:22;;;;;;;7.72;5.38;;;;;;;12.15;100.00;99491.88;4964847;28;20058;-79
2023/10/31 09:05:49;;;;;;;7.22;4.82;;;;;;;12.05;100.00;99492.25;4960833;29;20115;-80
2023/10/31 09:08:15;;;;;;;6.55;4.75;;;;;;;12.31;99.53;99488.94;4961873;29;20130;-80
2023/10/31 09:10:46;;;;;;;7.18;4.93;;;;;;;12.47;98.32;99495.66;4961943;29;20071;-79
2023/10/31 09:13:13;;;;;;;6.93;5.03;;;;;;;12.54;97.68;99488.63;4961367;28;20505;-79
2023/10/31 09:15:39;;;;;;;7.18;4.55;;;;;;;12.53;98.27;99493.06;4962487;28;20134;-80
2023/10/31 09:18:06;;;;;;;7.10;5.75;;;;;;;12.39;99.07;99501.88;4960891;28;20055;-78
2023/10/31 09:20:33;;;;;;;5.55;4.82;;;;;;;12.49;99.07;99504.16;4960677;28;20069;-80
2023/10/31 09:22:59;;;;;;;6.00;4.82;;;;;;;12.48;98.83;99507.78;4960555;28;20043;-80
2023/10/31 09:25:26;;;;;;;8.48;5.15;;;;;;;12.45;98.63;99506.34;4961359;28;20138;-80
2023/10/31 09:27:54;;;;;;;7.03;4.78;;;;;;;12.37;98.03;99521.44;4953457;29;20090;-79
2023/10/31 09:30:23;;;;;;;5.35;4.80;;;;;;;12.34;97.66;99524.44;4959817;28;20114;-79
2023/10/31 09:32:51;;;;;;;7.25;4.80;;;;;;;12.47;97.32;99516.66;4965893;29;20051;-78
2023/10/31 09:35:17;;;;;;;6.55;4.57;;;;;;;12.64;96.76;99531.06;4968246;28;20504;-79
2023/10/31 09:37:48;;;;;;;5.47;4.60;;;;;;;12.68;96.21;99532.28;4969400;28;20086;-79
2023/10/31 09:40:15;;;;;;;6.18;4.45;;;;;;;12.89;96.33;99534.78;4967998;28;20102;-79
2023/10/31 09:42:42;;;;;;;6.72;4.50;;;;;;;12.89;96.21;99537.41;4969228;29;20047;-81
2023/10/31 09:45:11;;;;;;;7.25;4.55;;;;;;;12.80;95.54;99528.06;4970489;28;20043;-79
2023/10/31 09:47:38;;;;;;;6.88;3.88;;;;;;;12.77;94.61;99519.78;4969285;28;20580;-79
2023/10/31 09:50:05;;;;;;;5.85;3.80;;;;;;;12.81;93.91;99521.81;4968842;28;20138;-78
2023/10/31 09:52:33;;;;;;;5.20;3.28;;;;;;;12.84;93.57;99531.94;4968862;29;20110;-79
2023/10/31 09:55:00;;;;;;;6.78;3.70;;;;;;;12.87;92.99;99528.91;4969006;28;20047;-79
2023/10/31 09:57:27;;;;;;;5.20;3.65;;;;;;;13.07;92.97;99542.09;4969720;28;20062;-81
2023/10/31 09:59:53;;;;;;;5.22;3.90;;;;;;;13.24;93.13;99545.19;4968993;28;20055;-80
2023/10/31 10:02:21;;;;;;;4.53;3.88;;;;;;;13.43;93.10;99544.41;4970696;29;20078;-80
2023/10/31 10:04:49;;;;;;;4.93;3.47;;;;;;;13.47;92.20;99552.72;4969785;28;20055;-80
2023/10/31 10:07:17;;;;;;;5.05;3.45;;;;;;;13.45;91.00;99554.72;4970018;28;20063;-80
2023/10/31 10:09:45;;;;;;;5.10;3.60;;;;;;;13.50;91.47;99558.38;4970162;28;20110;-79
2023/10/31 10:12:14;;;;;;;5.95;4.07;;;;;;;13.46;91.09;99541.38;4969799;28;20055;-80
2023/10/31 10:14:41;;;;;;;6.10;3.70;;;;;;;13.73;91.83;99572.94;4963995;28;20080;-81
2023/10/31 10:17:15;;;;;;;5.78;3.88;;;;;;;13.66;90.66;99565.06;4960795;28;20548;-79
2023/10/31 10:19:45;;;;;;;6.45;3.70;;;;;;;13.62;89.83;99558.59;4960165;28;20059;-80
2023/10/31 10:22:13;;;;;;;6.15;3.50;;;;;;;13.63;89.55;99562.84;4960666;28;20102;-80
2023/10/31 10:24:43;;;;;;;4.63;3.72;;;;;;;13.76;89.54;99569.88;4959123;28;20079;-81
2023/10/31 10:27:10;;;;;;;8.88;3.95;;;;;;;13.90;89.30;99574.16;4960204;29;20054;-81
2023/10/31 10:29:39;;;;;;;5.10;3.55;;;;;;;13.81;88.11;99556.94;4959964;29;20142;-83
2023/10/31 10:32:08;;;;;;;4.53;3.15;;;;;;;13.96;87.39;99568.06;4960968;28;20075;-81
2023/10/31 10:34:38;;;;;;;5.50;3.13;;;;;;;14.07;87.02;99564.84;4959942;28;20051;-81
2023/10/31 10:37:07;;;;;;;5.90;3.30;;;;;;;14.12;87.20;99570.28;4959679;28;20111;-82
2023/10/31 10:39:35;;;;;;;6.53;3.47;;;;;;;14.04;87.03;99569.69;4960245;28;20421;-81
2023/10/31 10:42:07;;;;;;;4.45;2.88;;;;;;;14.11;86.51;99579.19;4960022;29;20079;-81
2023/10/31 10:44:35;;;;;;;5.28;3.00;;;;;;;14.09;86.26;99577.78;4959505;28;20536;-80
2023/10/31 10:47:04;;;;;;;5.10;3.22;;;;;;;14.25;85.78;99567.63;4959914;28;20130;-81
2023/10/31 10:49:38;;;;;;;4.68;3.05;;;;;;;14.20;85.63;99572.69;4959614;28;20391;-80
2023/10/31 10:52:17;;;;;;;4.93;3.35;;;;;;;14.14;86.09;99570.09;4959949;28;20115;-80
2023/10/31 10:54:52;;;;;;;5.18;3.05;;;;;;;13.91;86.88;99586.28;4958995;29;20086;-80
2023/10/31 10:57:29;;;;;;;3.38;2.42;;;;;;;13.83;87.31;99592.56;4959930;28;20047;-81
2023/10/31 10:59:59;;;;;;;4.93;2.72;;;;;;;13.70;88.10;99602.28;4959464;28;20085;-80
2023/10/31 11:02:26;;;;;;;8.10;2.92;;;;;;;13.88;87.41;99598.00;4959187;28;20090;-81
2023/10/31 11:08:36;;;;;;;4.82;2.80;;;;;;;13.93;86.20;99594.78;4970624;28;20054;-82
2023/10/31 11:15:05;;;;;;;4.82;2.70;;;;;;;14.33;85.73;99581.56;4921620;28;20055;-81
2023/10/31 11:18:27;;;;;;;5.65;2.63;;;;;;;14.58;84.18;99585.19;4952232;28;20055;-81
2023/10/31 11:21:27;;;;;;;3.95;2.42;;;;;;;14.44;83.73;99554.66;4988806;28;20520;-81
2023/10/31 11:24:18;;;;;;;5.05;2.65;;;;;;;14.57;83.37;99580.97;4986535;28;20046;-82
2023/10/31 11:34:06;;;;;;;4.15;2.65;;;;;;;14.40;85.13;99608.69;4983859;28;20058;-79
2023/10/31 11:37:05;;;;;;;4.18;2.70;;;;;;;14.33;84.42;99611.34;4994233;28;20116;-80
2023/10/31 11:43:33;;;;;;;6.22;2.65;;;;;;;14.11;84.66;99589.72;4991316;28;20053;-81
2023/10/31 11:50:06;;;;;;;3.55;2.50;;;;;;;14.41;83.80;99616.41;4946063;29;20051;-81
2023/10/31 12:03:15;;;;;;;3.40;2.30;;;;;;;15.02;80.81;99607.31;4930820;29;20059;-82
2023/10/31 12:06:21;;;;;;;4.57;2.80;;;;;;;14.97;82.15;99607.13;4939938;29;20462;-82